Time;durP1;ratioP1;P1;durP2;ratioP2;P2;SDS_P1;SDS_P2;PMS_P1;PMS_P2;Temp;Humidity;BMP_temperature;BMP_pressure;BME280_temperature;BME280_humidity;BME280_pressure;Samples;Min_cycle;Max_cycle;Signal;HPM_P1;HPM_P2
2022/04/14 00:01:45;;;;;;;13.77;7.18;;;12.10;99.90;;;;;;5012479;28;20512;-44
2022/04/14 00:04:11;;;;;;;12.90;6.93;;;12.10;99.90;;;;;;5012168;28;20048;-44
2022/04/14 00:06:38;;;;;;;11.52;6.80;;;12.10;99.90;;;;;;5012028;28;20056;-44
2022/04/14 00:09:05;;;;;;;11.15;6.30;;;12.00;99.90;;;;;;5011610;28;20052;-45
2022/04/14 00:11:31;;;;;;;15.50;7.78;;;12.00;99.90;;;;;;5008721;28;20041;-44
2022/04/14 00:13:58;;;;;;;14.50;7.53;;;12.00;99.90;;;;;;5013252;28;20042;-44
2022/04/14 00:16:25;;;;;;;13.95;8.02;;;12.00;99.90;;;;;;5012145;28;20379;-45
2022/04/14 00:18:53;;;;;;;16.02;7.75;;;12.00;99.90;;;;;;5012686;28;20050;-44
2022/04/14 00:21:20;;;;;;;16.13;7.65;;;12.00;99.90;;;;;;5008249;28;20053;-44
2022/04/14 00:23:47;;;;;;;17.38;8.02;;;11.90;99.90;;;;;;5010162;28;20520;-44
2022/04/14 00:26:13;;;;;;;11.48;7.00;;;12.00;99.90;;;;;;5009591;28;20068;-44
2022/04/14 00:28:40;;;;;;;15.98;7.40;;;11.90;99.90;;;;;;5011274;28;20054;-44
2022/04/14 00:31:07;;;;;;;17.30;8.80;;;11.90;99.90;;;;;;5015452;28;20060;-45
2022/04/14 00:33:33;;;;;;;16.10;8.07;;;11.90;99.90;;;;;;5006750;28;20050;-44
2022/04/14 00:36:01;;;;;;;15.35;8.27;;;11.90;99.90;;;;;;5012732;28;20057;-44
2022/04/14 00:38:28;;;;;;;17.75;8.10;;;11.90;99.90;;;;;;5013090;28;20042;-44
2022/04/14 00:40:55;;;;;;;12.63;8.82;;;11.90;99.90;;;;;;5012449;28;20060;-44
2022/04/14 00:43:29;;;;;;;17.50;8.95;;;11.90;99.90;;;;;;5006266;28;20046;-44
2022/04/14 00:45:56;;;;;;;17.85;9.60;;;11.90;99.90;;;;;;5005932;28;20066;-45
2022/04/14 00:48:23;;;;;;;17.60;10.13;;;11.90;99.90;;;;;;5009772;28;20049;-44
2022/04/14 00:50:49;;;;;;;16.60;10.13;;;11.80;99.90;;;;;;5013308;28;20060;-45
2022/04/14 00:53:17;;;;;;;17.48;9.35;;;11.80;99.90;;;;;;5010616;28;20054;-44
2022/04/14 00:55:44;;;;;;;19.00;10.65;;;11.80;99.90;;;;;;5012540;28;20058;-45
2022/04/14 00:58:11;;;;;;;17.88;10.45;;;11.80;99.90;;;;;;5011520;28;20053;-42
2022/04/14 01:00:38;;;;;;;16.40;9.13;;;11.80;99.90;;;;;;5009136;28;20064;-43
2022/04/14 01:03:05;;;;;;;16.92;10.55;;;11.70;99.90;;;;;;5011512;28;20133;-43
2022/04/14 01:05:32;;;;;;;20.10;11.10;;;11.70;99.90;;;;;;5012395;28;20487;-43
2022/04/14 01:07:58;;;;;;;14.48;9.90;;;11.70;99.90;;;;;;5011405;28;20501;-44
2022/04/14 01:10:27;;;;;;;17.38;10.77;;;11.70;99.90;;;;;;5012382;28;20046;-43
2022/04/14 01:12:54;;;;;;;17.60;11.10;;;11.70;99.90;;;;;;5009297;28;20038;-44
2022/04/14 01:15:21;;;;;;;19.50;12.05;;;11.70;99.90;;;;;;5011260;28;20141;-43
2022/04/14 01:17:48;;;;;;;18.75;10.57;;;11.60;99.90;;;;;;5012215;28;20061;-43
2022/04/14 01:20:14;;;;;;;16.80;10.60;;;11.60;99.90;;;;;;5011479;28;20058;-43
2022/04/14 01:22:44;;;;;;;15.88;11.00;;;11.60;99.90;;;;;;5011824;28;20060;-43
2022/04/14 01:25:12;;;;;;;20.95;12.60;;;11.60;99.90;;;;;;5012492;28;20487;-43
2022/04/14 01:27:39;;;;;;;15.88;10.80;;;11.50;99.90;;;;;;5012447;28;20140;-43
2022/04/14 01:30:06;;;;;;;18.70;11.98;;;11.50;99.90;;;;;;5012779;28;20050;-43
2022/04/14 01:32:33;;;;;;;16.38;9.98;;;11.50;99.90;;;;;;5011474;28;20053;-44
2022/04/14 01:34:59;;;;;;;20.50;11.95;;;11.50;99.90;;;;;;5012460;28;20045;-43
2022/04/14 01:37:26;;;;;;;20.02;11.68;;;11.40;99.90;;;;;;5010403;28;20054;-43
2022/04/14 01:39:53;;;;;;;20.17;12.18;;;11.40;99.90;;;;;;5012247;28;20052;-43
2022/04/14 01:42:21;;;;;;;18.25;12.77;;;11.40;99.90;;;;;;5007490;28;20391;-43
2022/04/14 01:44:48;;;;;;;18.20;12.23;;;11.30;99.90;;;;;;5004245;28;20042;-43
2022/04/14 01:47:15;;;;;;;19.58;12.23;;;11.30;99.90;;;;;;5008473;28;20052;-44
2022/04/14 01:49:41;;;;;;;19.83;13.57;;;11.20;99.90;;;;;;5009720;28;20050;-43
2022/04/14 01:52:08;;;;;;;15.60;10.43;;;11.20;99.90;;;;;;5008556;28;20694;-43
2022/04/14 01:54:35;;;;;;;20.38;10.23;;;11.20;99.90;;;;;;5011338;28;20046;-43
2022/04/14 01:57:02;;;;;;;17.60;11.65;;;11.10;99.90;;;;;;5010462;28;20060;-43
2022/04/14 01:59:30;;;;;;;16.30;11.32;;;11.10;99.90;;;;;;5007041;28;20458;-43
2022/04/14 02:01:56;;;;;;;18.02;12.30;;;11.10;99.90;;;;;;5011483;28;20048;-43
2022/04/14 02:04:23;;;;;;;19.67;13.45;;;11.10;99.90;;;;;;5010219;28;20050;-44
2022/04/14 02:06:50;;;;;;;15.65;11.30;;;11.00;99.90;;;;;;5008543;28;20481;-44
2022/04/14 02:09:16;;;;;;;17.25;12.13;;;10.90;99.90;;;;;;5010417;28;20125;-44
2022/04/14 02:11:43;;;;;;;17.38;12.02;;;10.90;99.90;;;;;;5009855;28;20053;-44
2022/04/14 02:14:10;;;;;;;17.95;10.75;;;10.90;99.90;;;;;;5006272;28;20482;-43
2022/04/14 02:16:38;;;;;;;20.00;14.00;;;10.80;99.90;;;;;;5010714;28;20417;-43
2022/04/14 02:19:04;;;;;;;19.92;12.73;;;10.80;99.90;;;;;;5010857;28;20046;-43
2022/04/14 02:21:31;;;;;;;17.50;11.38;;;10.80;99.90;;;;;;5011342;28;20042;-43
2022/04/14 02:23:58;;;;;;;23.48;14.50;;;10.70;99.90;;;;;;5009408;28;20133;-43
2022/04/14 02:26:24;;;;;;;18.92;12.75;;;10.70;99.90;;;;;;5008932;28;20050;-44
2022/04/14 02:28:51;;;;;;;19.52;13.23;;;10.70;99.90;;;;;;5010470;28;20470;-43
2022/04/14 02:31:18;;;;;;;18.85;12.30;;;10.60;99.90;;;;;;5009756;28;20053;-43
2022/04/14 02:33:46;;;;;;;19.35;12.85;;;10.60;99.90;;;;;;5007292;28;20058;-43
2022/04/14 02:36:12;;;;;;;17.38;11.57;;;10.60;99.90;;;;;;5000685;28;20054;-43
2022/04/14 02:38:39;;;;;;;18.80;11.88;;;10.60;99.90;;;;;;5011491;28;20052;-43
2022/04/14 02:41:06;;;;;;;20.20;13.40;;;10.50;99.90;;;;;;5011106;28;20477;-43
2022/04/14 02:43:32;;;;;;;22.75;13.20;;;10.50;99.90;;;;;;4998164;28;20058;-43
2022/04/14 02:45:59;;;;;;;24.80;16.75;;;10.50;99.90;;;;;;5006645;28;20050;-44
2022/04/14 02:48:26;;;;;;;16.90;12.13;;;10.40;99.90;;;;;;5007196;28;20046;-44
2022/04/14 02:50:54;;;;;;;21.48;12.57;;;10.40;99.90;;;;;;5010195;28;20060;-43
2022/04/14 02:53:21;;;;;;;16.45;12.45;;;10.40;99.90;;;;;;5004464;28;20053;-43
2022/04/14 02:55:47;;;;;;;28.40;19.77;;;10.40;99.90;;;;;;5009315;28;20062;-43
2022/04/14 02:58:14;;;;;;;23.05;15.07;;;10.30;99.90;;;;;;5010092;28;20060;-43
2022/04/14 03:00:41;;;;;;;25.92;16.25;;;10.30;99.90;;;;;;5011959;28;20046;-43
2022/04/14 03:03:08;;;;;;;29.50;19.38;;;10.30;99.90;;;;;;5008902;28;20057;-43
2022/04/14 03:05:34;;;;;;;19.85;16.08;;;10.30;99.90;;;;;;5004422;28;20057;-43
2022/04/14 03:08:03;;;;;;;23.48;15.60;;;10.30;99.90;;;;;;5010332;28;20633;-44
2022/04/14 03:10:29;;;;;;;26.00;16.67;;;10.30;99.90;;;;;;5014668;28;20143;-44
2022/04/14 03:12:57;;;;;;;25.52;18.73;;;10.20;99.90;;;;;;5014808;28;20058;-43
2022/04/14 03:15:24;;;;;;;28.38;20.30;;;10.20;99.90;;;;;;5013899;28;20108;-44
2022/04/14 03:17:51;;;;;;;27.60;17.88;;;10.20;99.90;;;;;;5014204;28;20057;-43
2022/04/14 03:20:17;;;;;;;28.52;19.65;;;10.20;99.90;;;;;;5014014;28;20054;-44
2022/04/14 03:22:44;;;;;;;27.63;18.92;;;10.20;99.90;;;;;;5014885;28;20068;-44
2022/04/14 03:25:13;;;;;;;38.53;25.15;;;10.10;99.90;;;;;;5014722;28;20042;-44
2022/04/14 03:27:40;;;;;;;24.00;16.27;;;10.10;99.90;;;;;;5014787;28;20517;-44
2022/04/14 03:30:08;;;;;;;25.63;18.95;;;10.10;99.90;;;;;;5014344;28;20425;-44
2022/04/14 03:32:40;;;;;;;29.73;22.67;;;10.10;99.90;;;;;;5012661;28;20053;-44
2022/04/14 03:35:07;;;;;;;;;;;10.10;99.90;;;;;;5014326;28;20056;-44
2022/04/14 03:37:34;;;;;;;29.98;20.67;;;10.00;99.90;;;;;;5012031;28;19926;-44
2022/04/14 03:40:01;;;;;;;28.15;21.95;;;10.00;99.90;;;;;;5009802;28;20053;-44
2022/04/14 03:42:29;;;;;;;26.42;18.40;;;10.00;99.90;;;;;;5007345;28;20395;-44
2022/04/14 03:44:55;;;;;;;34.88;20.33;;;9.90;99.90;;;;;;5012938;28;20092;-44
2022/04/14 03:47:22;;;;;;;34.20;22.75;;;9.90;99.90;;;;;;5014504;28;20052;-44
2022/04/14 03:49:49;;;;;;;31.67;20.92;;;9.90;99.90;;;;;;5010597;28;20057;-44
2022/04/14 03:52:15;;;;;;;32.17;21.83;;;9.90;99.90;;;;;;5011229;28;20482;-44
2022/04/14 03:54:42;;;;;;;31.67;22.17;;;9.90;99.90;;;;;;5004249;28;20053;-43
2022/04/14 03:57:09;;;;;;;34.35;24.25;;;9.80;99.90;;;;;;5012758;28;20497;-44
2022/04/14 03:59:37;;;;;;;31.30;21.50;;;9.80;99.90;;;;;;5015157;28;20057;-44
2022/04/14 04:02:04;;;;;;;33.92;22.95;;;9.80;99.90;;;;;;5011837;28;20046;-44
2022/04/14 04:04:32;;;;;;;28.80;18.67;;;9.80;99.90;;;;;;5012783;28;20478;-44
2022/04/14 04:06:58;;;;;;;23.88;17.45;;;9.70;99.90;;;;;;5012015;28;20049;-44
2022/04/14 04:09:26;;;;;;;40.28;25.50;;;9.70;99.90;;;;;;5006232;28;20042;-44
2022/04/14 04:11:53;;;;;;;26.58;20.00;;;9.70;99.90;;;;;;5010778;28;20081;-44
2022/04/14 04:14:20;;;;;;;32.92;21.73;;;9.60;99.90;;;;;;5013652;28;20046;-44
2022/04/14 04:16:48;;;;;;;28.25;20.25;;;9.60;99.90;;;;;;5010238;28;20056;-44
2022/04/14 04:19:14;;;;;;;33.95;22.27;;;9.60;99.90;;;;;;5013730;28;20406;-44
2022/04/14 04:21:41;;;;;;;27.70;18.33;;;9.50;99.90;;;;;;5007579;28;20054;-44
2022/04/14 04:24:08;;;;;;;33.35;24.00;;;9.50;99.90;;;;;;5007873;28;20046;-44
2022/04/14 04:26:34;;;;;;;38.10;24.65;;;9.50;99.90;;;;;;5004048;28;20406;-44
2022/04/14 04:29:01;;;;;;;26.55;20.05;;;9.40;99.90;;;;;;5011316;28;20045;-44
2022/04/14 04:31:28;;;;;;;26.95;20.10;;;9.50;99.90;;;;;;5012033;28;20054;-44
2022/04/14 04:33:56;;;;;;;32.05;21.15;;;9.40;99.90;;;;;;5007098;28;20057;-44
2022/04/14 04:36:22;;;;;;;26.70;18.75;;;9.40;99.90;;;;;;5006936;28;20406;-43
2022/04/14 04:38:49;;;;;;;33.83;22.23;;;9.40;99.90;;;;;;5007359;28;20049;-45
2022/04/14 04:41:16;;;;;;;28.23;20.55;;;9.30;99.90;;;;;;5010673;28;20470;-45
2022/04/14 04:43:42;;;;;;;34.38;23.23;;;9.30;99.90;;;;;;5010829;28;20485;-45
2022/04/14 04:46:09;;;;;;;27.23;18.42;;;9.30;99.90;;;;;;5011380;28;20144;-44
2022/04/14 04:48:36;;;;;;;36.85;22.10;;;9.20;99.90;;;;;;5009842;28;20064;-44
2022/04/14 04:51:04;;;;;;;23.52;17.45;;;9.20;99.90;;;;;;5010622;28;20053;-44
2022/04/14 04:53:31;;;;;;;26.30;18.05;;;9.20;99.90;;;;;;5010940;28;20397;-44
2022/04/14 04:55:57;;;;;;;31.08;22.35;;;9.20;99.90;;;;;;5008998;28;20133;-44
2022/04/14 04:58:24;;;;;;;36.80;24.52;;;9.10;99.90;;;;;;5011633;28;20054;-45
2022/04/14 05:00:53;;;;;;;34.97;22.85;;;9.10;99.90;;;;;;5013017;28;20536;-44
2022/04/14 05:03:21;;;;;;;39.53;24.90;;;9.10;99.90;;;;;;5006987;28;20064;-44
2022/04/14 05:05:47;;;;;;;38.63;23.23;;;9.10;99.90;;;;;;5000282;28;20046;-43
2022/04/14 05:08:15;;;;;;;38.90;25.27;;;9.10;99.90;;;;;;5011576;28;20068;-43
2022/04/14 05:10:42;;;;;;;37.30;23.92;;;9.00;99.90;;;;;;5011222;28;20054;-44
2022/04/14 05:13:09;;;;;;;44.55;27.20;;;9.10;99.90;;;;;;5008722;28;20108;-45
2022/04/14 05:15:36;;;;;;;45.63;29.15;;;9.00;99.90;;;;;;5012141;28;20084;-44
2022/04/14 05:18:03;;;;;;;42.22;28.88;;;9.20;99.90;;;;;;5010220;28;20049;-44
2022/04/14 05:20:30;;;;;;;38.80;25.00;;;9.00;99.90;;;;;;5013301;28;20046;-44
2022/04/14 05:22:56;;;;;;;38.03;25.75;;;9.00;99.90;;;;;;5013453;28;20392;-44
2022/04/14 05:25:24;;;;;;;40.83;27.30;;;9.00;99.90;;;;;;5012918;28;20076;-44
2022/04/14 05:27:51;;;;;;;41.03;27.63;;;9.00;99.90;;;;;;5011983;28;20389;-43
2022/04/14 05:30:18;;;;;;;42.10;28.08;;;9.00;99.90;;;;;;5012123;28;20064;-43
2022/04/14 05:32:44;;;;;;;37.47;27.55;;;9.10;99.90;;;;;;5012345;28;20050;-43
2022/04/14 05:35:11;;;;;;;46.92;30.48;;;9.10;99.90;;;;;;5013487;28;20049;-43
2022/04/14 05:37:38;;;;;;;45.22;31.35;;;9.10;99.90;;;;;;5012524;28;20049;-44
2022/04/14 05:40:06;;;;;;;42.38;28.10;;;9.20;99.90;;;;;;5011751;28;20397;-43
2022/04/14 05:42:34;;;;;;;47.70;30.95;;;9.20;99.90;;;;;;5006030;28;20049;-43
2022/04/14 05:45:00;;;;;;;49.65;31.02;;;9.20;99.90;;;;;;5013278;28;20496;-45
2022/04/14 05:47:27;;;;;;;56.50;35.88;;;9.30;99.90;;;;;;5012003;28;20077;-43
2022/04/14 05:49:54;;;;;;;55.00;33.95;;;9.30;99.90;;;;;;5012030;28;20546;-43
2022/04/14 05:52:21;;;;;;;55.72;35.72;;;9.40;99.90;;;;;;5012146;28;20512;-44
2022/04/14 05:54:47;;;;;;;58.00;34.78;;;9.40;99.90;;;;;;5013037;28;20141;-43
2022/04/14 05:57:14;;;;;;;56.78;35.10;;;9.50;99.90;;;;;;5013009;28;20075;-44
2022/04/14 05:59:42;;;;;;;46.58;32.90;;;9.60;99.90;;;;;;5005310;28;20050;-44
2022/04/14 06:02:09;;;;;;;47.22;29.55;;;9.60;99.90;;;;;;5012737;28;20060;-44
2022/04/14 06:04:36;;;;;;;54.63;35.58;;;9.70;99.90;;;;;;5005058;28;20060;-44
2022/04/14 06:07:02;;;;;;;53.30;35.03;;;9.80;99.90;;;;;;5011402;28;20054;-43
2022/04/14 06:09:29;;;;;;;52.80;35.05;;;9.90;99.90;;;;;;5011794;28;20042;-44
2022/04/14 06:11:56;;;;;;;51.75;34.20;;;10.00;99.90;;;;;;5012877;28;20050;-43
2022/04/14 06:14:22;;;;;;;52.20;34.80;;;10.10;99.90;;;;;;5012478;28;20056;-43
2022/04/14 06:16:51;;;;;;;54.25;35.17;;;10.10;99.90;;;;;;5005188;28;20050;-44
2022/04/14 06:19:17;;;;;;;47.92;34.78;;;10.30;99.90;;;;;;5012465;28;20401;-44
2022/04/14 06:21:44;;;;;;;53.38;35.17;;;10.40;99.90;;;;;;5011141;28;20397;-44
2022/04/14 06:24:11;;;;;;;50.13;33.33;;;10.40;99.90;;;;;;5004861;28;20053;-43
2022/04/14 06:26:37;;;;;;;52.22;35.13;;;10.50;99.90;;;;;;5011323;28;20054;-44
2022/04/14 06:29:04;;;;;;;49.65;32.88;;;10.60;99.90;;;;;;5011402;28;20491;-44
2022/04/14 06:31:31;;;;;;;53.95;36.38;;;10.70;99.90;;;;;;5012149;28;20121;-44
2022/04/14 06:33:59;;;;;;;53.05;34.40;;;10.80;99.90;;;;;;5004836;28;20048;-44
2022/04/14 06:36:25;;;;;;;55.83;35.58;;;10.90;99.90;;;;;;5011137;28;20064;-44
2022/04/14 06:38:52;;;;;;;51.95;33.97;;;11.00;99.90;;;;;;5012747;28;20478;-45
2022/04/14 06:41:19;;;;;;;53.88;35.75;;;11.10;99.90;;;;;;5016633;28;20052;-45
2022/04/14 06:43:49;;;;;;;54.75;36.85;;;11.20;99.90;;;;;;4999747;28;20054;-44
2022/04/14 06:46:16;;;;;;;55.33;34.80;;;11.30;99.90;;;;;;5015059;28;20046;-45
2022/04/14 06:48:42;;;;;;;49.42;33.97;;;11.50;99.90;;;;;;5016137;28;20046;-44
2022/04/14 06:51:10;;;;;;;50.05;33.50;;;11.60;99.90;;;;;;5015870;28;20054;-44
2022/04/14 06:53:37;;;;;;;49.70;33.90;;;11.60;99.90;;;;;;5015337;28;20054;-45
2022/04/14 06:56:05;;;;;;;56.35;35.70;;;11.80;99.90;;;;;;5016385;28;20065;-44
2022/04/14 06:58:31;;;;;;;52.78;32.60;;;11.90;99.90;;;;;;5014826;28;20057;-44
2022/04/14 07:00:58;;;;;;;53.85;34.75;;;12.00;99.90;;;;;;5013330;28;20104;-45
2022/04/14 07:03:26;;;;;;;55.28;32.80;;;12.10;99.90;;;;;;5008783;28;20050;-44
2022/04/14 07:05:54;;;;;;;50.05;33.33;;;12.20;99.90;;;;;;5012113;28;20042;-44
2022/04/14 07:08:24;;;;;;;52.70;33.00;;;12.30;99.90;;;;;;5016236;28;20108;-44
2022/04/14 07:10:51;;;;;;;52.28;31.60;;;12.50;99.90;;;;;;5015985;28;20462;-44
2022/04/14 07:13:17;;;;;;;41.97;30.35;;;12.50;99.90;;;;;;5009648;28;20050;-44
2022/04/14 07:15:44;;;;;;;47.90;31.98;;;12.70;99.90;;;;;;5014828;28;20054;-44
2022/04/14 07:18:11;;;;;;;47.30;31.02;;;12.80;99.90;;;;;;5015776;28;20052;-44
2022/04/14 07:20:37;;;;;;;39.70;27.08;;;12.90;99.90;;;;;;5014556;28;20046;-44
2022/04/14 07:23:05;;;;;;;43.70;28.15;;;13.10;99.90;;;;;;5011898;28;20135;-44
2022/04/14 07:25:34;;;;;;;43.05;28.50;;;13.20;99.90;;;;;;5013144;28;20053;-44
2022/04/14 07:28:01;;;;;;;42.70;27.80;;;13.40;99.90;;;;;;5020100;28;20101;-44
2022/04/14 07:30:28;;;;;;;44.50;27.50;;;13.50;99.90;;;;;;5015596;28;20053;-44
2022/04/14 07:32:54;;;;;;;40.20;26.63;;;13.60;99.90;;;;;;5011887;28;20042;-44
2022/04/14 07:35:22;;;;;;;36.95;25.42;;;13.70;99.90;;;;;;5010840;28;20046;-44
2022/04/14 07:37:49;;;;;;;41.92;28.60;;;13.90;99.90;;;;;;5014725;28;20375;-44
2022/04/14 07:40:15;;;;;;;41.55;27.90;;;14.00;99.90;;;;;;5014541;28;20056;-44
2022/04/14 07:42:44;;;;;;;44.60;26.67;;;14.10;99.90;;;;;;5006208;28;20056;-45
2022/04/14 07:45:12;;;;;;;40.90;25.95;;;14.30;99.90;;;;;;5008828;28;20042;-44
2022/04/14 07:47:41;;;;;;;40.83;27.00;;;14.40;99.90;;;;;;5013973;28;20136;-44
2022/04/14 07:50:08;;;;;;;40.10;26.40;;;14.50;99.90;;;;;;5014123;28;20053;-44
2022/04/14 07:52:44;;;;;;;40.22;26.13;;;14.70;99.90;;;;;;5015540;28;20052;-44
2022/04/14 07:55:11;;;;;;;35.05;24.88;;;14.90;99.90;;;;;;5014404;28;20056;-43
2022/04/14 07:57:37;;;;;;;32.20;23.40;;;15.00;99.90;;;;;;5015464;28;20045;-44
2022/04/14 08:00:08;;;;;;;35.00;23.40;;;15.10;99.90;;;;;;5007208;28;20044;-43
2022/04/14 08:02:35;;;;;;;30.88;22.63;;;15.20;99.90;;;;;;5014967;28;20050;-43
2022/04/14 08:05:02;;;;;;;31.75;21.25;;;15.40;99.90;;;;;;5007310;28;20160;-44
2022/04/14 08:07:29;;;;;;;31.33;21.02;;;15.50;99.90;;;;;;5015409;28;20046;-43
2022/04/14 08:09:55;;;;;;;30.17;20.50;;;15.70;99.90;;;;;;5015438;28;20050;-44
2022/04/14 08:12:22;;;;;;;28.35;18.83;;;15.80;99.90;;;;;;5015120;28;20060;-44
2022/04/14 08:14:49;;;;;;;27.23;19.00;;;15.90;99.90;;;;;;5013824;28;20073;-44
2022/04/14 08:17:17;;;;;;;26.92;17.40;;;16.00;99.90;;;;;;5013728;28;20050;-44
2022/04/14 08:19:43;;;;;;;26.58;16.42;;;16.20;99.90;;;;;;5007948;28;20073;-44
2022/04/14 08:22:10;;;;;;;20.55;13.98;;;16.40;99.90;;;;;;5014339;28;20742;-43
2022/04/14 08:24:37;;;;;;;22.20;14.07;;;16.40;99.90;;;;;;5014740;28;20058;-44
2022/04/14 08:27:04;;;;;;;20.30;13.95;;;16.60;99.90;;;;;;5014342;28;20052;-43
2022/04/14 08:29:30;;;;;;;18.95;14.27;;;16.70;99.90;;;;;;5014303;28;20506;-43
2022/04/14 08:31:57;;;;;;;19.20;13.80;;;16.90;99.90;;;;;;5006481;28;20514;-43
2022/04/14 08:34:25;;;;;;;19.88;14.95;;;17.00;99.90;;;;;;5014509;28;20048;-43
2022/04/14 08:36:53;;;;;;;21.67;14.45;;;17.10;99.90;;;;;;5014507;28;20050;-44
2022/04/14 08:39:20;;;;;;;19.45;14.18;;;17.20;99.90;;;;;;5013415;28;20053;-44
2022/04/14 08:41:49;;;;;;;19.63;14.82;;;17.30;99.90;;;;;;5013208;28;20136;-44
2022/04/14 08:44:16;;;;;;;19.80;14.77;;;17.40;99.90;;;;;;5007684;28;20058;-44
2022/04/14 08:46:43;;;;;;;21.45;15.05;;;17.60;99.90;;;;;;5008176;28;20406;-42
2022/04/14 08:49:09;;;;;;;18.23;14.43;;;17.60;99.30;;;;;;5012541;28;20050;-44
2022/04/14 08:51:37;;;;;;;19.13;14.30;;;17.80;99.50;;;;;;5014221;28;20058;-43
2022/04/14 08:54:05;;;;;;;17.65;14.05;;;17.90;99.20;;;;;;5006275;28;20050;-43
2022/04/14 08:56:32;;;;;;;19.80;14.85;;;18.10;99.00;;;;;;5013825;28;20064;-43
2022/04/14 08:58:59;;;;;;;20.67;14.70;;;18.20;98.90;;;;;;5013923;28;20052;-43
2022/04/14 09:01:27;;;;;;;20.70;14.80;;;18.40;98.10;;;;;;5012139;28;20050;-43
2022/04/14 09:03:55;;;;;;;23.60;15.73;;;18.50;97.30;;;;;;5014151;28;20041;-44
2022/04/14 09:06:22;;;;;;;21.83;14.52;;;18.50;97.30;;;;;;5013582;28;20053;-44
2022/04/14 09:08:50;;;;;;;23.08;14.75;;;18.70;97.20;;;;;;5013888;28;20049;-44
2022/04/14 09:11:18;;;;;;;18.90;14.43;;;18.80;96.30;;;;;;5008645;28;20046;-44
2022/04/14 09:13:46;;;;;;;19.42;14.55;;;18.80;96.10;;;;;;5006148;28;20467;-45
2022/04/14 09:16:13;;;;;;;19.88;14.10;;;18.90;96.10;;;;;;5012540;28;20111;-44
2022/04/14 09:18:40;;;;;;;18.48;13.57;;;19.10;96.30;;;;;;5012758;28;20045;-44
2022/04/14 09:21:07;;;;;;;18.35;13.73;;;19.20;95.30;;;;;;5013684;28;20054;-43
2022/04/14 09:23:36;;;;;;;16.45;13.77;;;19.40;94.80;;;;;;5005847;28;20141;-45
2022/04/14 09:26:13;;;;;;;15.32;12.48;;;19.40;94.20;;;;;;5010904;28;20046;-44
2022/04/14 09:28:40;;;;;;;16.83;12.93;;;19.50;94.00;;;;;;5005115;28;20453;-46
2022/04/14 09:31:08;;;;;;;17.30;13.80;;;19.60;93.80;;;;;;5013568;28;20052;-43
2022/04/14 09:33:35;;;;;;;20.33;13.68;;;19.70;93.00;;;;;;4997859;28;20046;-44
2022/04/14 09:36:09;;;;;;;17.88;13.95;;;19.70;92.60;;;;;;5004564;28;20502;-43
2022/04/14 09:38:58;;;;;;;17.75;13.52;;;19.80;92.50;;;;;;5005375;28;20124;-43
2022/04/14 09:41:37;;;;;;;16.90;13.50;;;19.90;92.50;;;;;;5009681;28;20056;-43
2022/04/14 09:44:05;;;;;;;16.90;14.80;;;19.90;92.00;;;;;;5013016;28;20058;-43
2022/04/14 09:46:32;;;;;;;17.42;14.38;;;20.00;91.40;;;;;;5012944;28;20064;-43
2022/04/14 09:49:03;;;;;;;18.67;14.02;;;20.10;91.10;;;;;;5012080;28;20054;-43
2022/04/14 09:51:30;;;;;;;17.30;13.43;;;20.10;90.20;;;;;;5012048;28;20054;-45
2022/04/14 09:54:04;;;;;;;18.38;13.88;;;20.10;90.00;;;;;;5011847;28;20503;-43
2022/04/14 09:56:43;;;;;;;16.25;12.93;;;20.10;90.10;;;;;;5012562;28;20057;-44
2022/04/14 09:59:11;;;;;;;18.00;13.57;;;20.30;89.60;;;;;;5012113;28;20054;-44
2022/04/14 10:01:37;;;;;;;15.35;13.73;;;20.40;89.40;;;;;;5012794;28;20558;-44
2022/04/14 10:04:05;;;;;;;14.55;13.02;;;20.50;89.10;;;;;;5005231;28;20046;-44
2022/04/14 10:06:31;;;;;;;17.58;12.25;;;20.50;88.00;;;;;;5006223;28;20060;-44
2022/04/14 10:08:58;;;;;;;17.42;11.73;;;20.60;87.80;;;;;;5013036;28;20465;-44
2022/04/14 10:11:25;;;;;;;14.68;11.35;;;20.60;86.30;;;;;;5011567;28;20042;-44
2022/04/14 10:13:53;;;;;;;15.55;11.70;;;20.70;86.60;;;;;;5011876;28;20548;-45
2022/04/14 10:16:21;;;;;;;18.10;11.02;;;20.80;85.20;;;;;;5011709;28;20054;-44
2022/04/14 10:18:48;;;;;;;13.13;10.77;;;20.80;84.50;;;;;;5003938;28;20073;-44
2022/04/14 10:21:15;;;;;;;14.32;10.95;;;20.90;83.40;;;;;;5012552;28;20052;-44
2022/04/14 10:23:42;;;;;;;11.38;9.60;;;20.80;83.50;;;;;;5012773;28;20054;-43
2022/04/14 10:26:08;;;;;;;12.82;10.25;;;20.90;83.90;;;;;;5012763;28;20048;-44
2022/04/14 10:28:36;;;;;;;13.82;8.20;;;20.90;83.70;;;;;;5012442;28;20054;-45
2022/04/14 10:31:04;;;;;;;13.93;7.82;;;20.90;82.90;;;;;;5012650;28;20054;-45
2022/04/14 10:33:30;;;;;;;9.73;6.28;;;20.90;82.70;;;;;;5012261;28;20050;-44
2022/04/14 10:35:57;;;;;;;11.25;6.65;;;20.80;82.10;;;;;;5011450;28;20060;-44
2022/04/14 10:38:25;;;;;;;11.23;6.55;;;20.70;81.50;;;;;;5011531;28;20471;-44
2022/04/14 10:41:03;;;;;;;10.50;6.80;;;20.80;82.40;;;;;;5027153;28;20050;-44
2022/04/14 10:43:31;;;;;;;10.63;7.25;;;20.80;81.00;;;;;;5012167;28;20042;-44
2022/04/14 10:45:59;;;;;;;10.48;7.18;;;20.80;81.30;;;;;;5004071;28;20045;-44
2022/04/14 10:48:31;;;;;;;12.48;7.50;;;21.00;81.80;;;;;;5011280;28;20050;-43
2022/04/14 10:51:21;;;;;;;11.63;7.55;;;21.20;80.00;;;;;;5003909;28;20605;-44
2022/04/14 10:53:49;;;;;;;12.80;7.90;;;21.10;80.00;;;;;;5012013;28;20498;-44
2022/04/14 10:56:40;;;;;;;12.57;7.97;;;20.90;79.80;;;;;;5012109;28;20053;-44
2022/04/14 10:59:09;;;;;;;12.35;7.50;;;20.90;77.90;;;;;;5012461;28;20096;-43
2022/04/14 11:02:02;;;;;;;10.40;7.63;;;20.90;80.50;;;;;;5012313;28;20057;-43
2022/04/14 11:04:35;;;;;;;11.27;6.40;;;21.00;80.80;;;;;;5012571;28;20056;-43
2022/04/14 11:07:02;;;;;;;12.75;6.22;;;21.10;79.20;;;;;;5004378;28;20041;-44
2022/04/14 11:09:49;;;;;;;8.32;5.93;;;21.20;79.30;;;;;;5011747;28;20045;-43
2022/04/14 11:12:18;;;;;;;8.98;4.70;;;21.30;77.80;;;;;;5012288;28;20395;-45
2022/04/14 11:14:46;;;;;;;7.63;3.10;;;21.40;77.30;;;;;;5011959;28;20053;-44
2022/04/14 11:17:54;;;;;;;6.15;3.13;;;21.50;74.80;;;;;;5010900;28;20058;-45
2022/04/14 11:20:23;;;;;;;10.70;4.22;;;21.50;73.90;;;;;;5005232;28;20379;-44
2022/04/14 11:23:06;;;;;;;6.65;3.97;;;21.50;73.80;;;;;;5010643;28;20072;-44
2022/04/14 11:25:47;;;;;;;9.52;4.10;;;21.50;73.40;;;;;;5014257;28;20050;-45
2022/04/14 11:28:25;;;;;;;8.18;4.15;;;21.50;73.70;;;;;;5014813;28;20125;-45
2022/04/14 11:30:53;;;;;;;7.53;3.80;;;21.50;71.30;;;;;;5014382;28;20060;-44
2022/04/14 11:33:25;;;;;;;7.60;3.63;;;21.40;73.50;;;;;;5011213;28;20146;-45
2022/04/14 11:35:53;;;;;;;9.85;4.15;;;21.50;73.40;;;;;;5013492;28;20081;-44
2022/04/14 11:38:50;;;;;;;7.25;4.75;;;21.70;74.10;;;;;;5014222;28;20046;-44
2022/04/14 11:41:31;;;;;;;7.45;3.95;;;21.90;73.50;;;;;;5002979;28;20074;-45
2022/04/14 11:43:57;;;;;;;11.37;4.43;;;21.90;70.90;;;;;;5015228;28;20561;-45
2022/04/14 11:46:24;;;;;;;7.55;4.60;;;22.00;71.60;;;;;;5015287;28;20060;-45
2022/04/14 11:48:51;;;;;;;7.82;4.28;;;22.10;70.00;;;;;;5014524;28;20061;-45
2022/04/14 11:51:19;;;;;;;8.98;4.38;;;22.10;70.20;;;;;;5013910;28;20536;-46
2022/04/14 11:53:46;;;;;;;6.43;3.72;;;22.20;69.80;;;;;;5013724;28;20052;-44
2022/04/14 11:56:16;;;;;;;4.85;2.58;;;22.20;69.10;;;;;;5010519;28;20050;-46
2022/04/14 11:58:43;;;;;;;6.13;2.72;;;22.10;68.00;;;;;;5013845;28;20054;-45
2022/04/14 12:01:09;;;;;;;5.93;3.05;;;22.00;68.20;;;;;;5003075;28;20057;-45
2022/04/14 12:03:36;;;;;;;6.13;3.38;;;21.90;67.70;;;;;;5014850;28;20057;-46
2022/04/14 12:06:04;;;;;;;4.22;2.30;;;21.80;68.00;;;;;;5014337;28;20057;-45
2022/04/14 12:08:32;;;;;;;7.28;2.70;;;21.80;66.90;;;;;;5014949;28;20104;-45
2022/04/14 12:11:02;;;;;;;18.27;3.72;;;21.90;67.70;;;;;;5019330;28;20051;-45
2022/04/14 12:13:29;;;;;;;18.05;3.20;;;22.00;68.40;;;;;;5015711;28;20045;-45
2022/04/14 12:16:02;;;;;;;8.40;3.40;;;22.00;68.00;;;;;;5014010;28;20057;-45
2022/04/14 12:18:29;;;;;;;6.53;3.00;;;21.90;67.70;;;;;;5008057;28;20050;-44
2022/04/14 12:20:56;;;;;;;26.75;4.57;;;22.00;68.30;;;;;;5029431;28;20508;-44
2022/04/14 12:23:23;;;;;;;5.88;3.10;;;22.00;68.10;;;;;;5010688;28;20083;-46
2022/04/14 12:25:52;;;;;;;6.45;3.38;;;22.10;67.80;;;;;;5013911;28;20520;-44
2022/04/14 12:28:19;;;;;;;9.82;3.20;;;22.20;68.70;;;;;;5013037;28;20104;-45
2022/04/14 12:30:45;;;;;;;7.65;3.25;;;22.30;68.10;;;;;;5013650;28;20156;-44
2022/04/14 12:33:12;;;;;;;6.28;2.65;;;22.30;67.30;;;;;;5013009;28;20147;-44
2022/04/14 12:35:40;;;;;;;4.97;2.45;;;22.30;66.90;;;;;;5014515;28;20055;-44
2022/04/14 12:38:13;;;;;;;7.32;2.65;;;22.20;66.30;;;;;;5012786;28;20057;-43